sensor_id;sensor_type;location;lat;lon;timestamp;P1;durP1;ratioP1;P2;durP2;ratioP2
41689;SDS011;27372;42.658;23.256;2023-07-24T00:01:52;11.75;;;8.15;;
41689;SDS011;27372;42.658;23.256;2023-07-24T00:04:35;13.02;;;8.38;;
41689;SDS011;27372;42.658;23.256;2023-07-24T00:07:00;13.13;;;8.32;;
41689;SDS011;27372;42.658;23.256;2023-07-24T00:09:28;15.05;;;9.13;;
41689;SDS011;27372;42.658;23.256;2023-07-24T00:11:54;15.25;;;10.15;;
41689;SDS011;27372;42.658;23.256;2023-07-24T00:14:19;16.30;;;10.23;;
41689;SDS011;27372;42.658;23.256;2023-07-24T00:16:51;19.33;;;10.65;;
41689;SDS011;27372;42.658;23.256;2023-07-24T00:19:19;15.35;;;10.25;;
41689;SDS011;27372;42.658;23.256;2023-07-24T00:21:44;18.10;;;10.30;;
41689;SDS011;27372;42.658;23.256;2023-07-24T00:24:11;14.27;;;9.80;;
41689;SDS011;27372;42.658;23.256;2023-07-24T00:26:36;16.35;;;9.88;;
41689;SDS011;27372;42.658;23.256;2023-07-24T00:29:02;17.17;;;9.48;;
41689;SDS011;27372;42.658;23.256;2023-07-24T00:31:28;13.45;;;9.02;;
41689;SDS011;27372;42.658;23.256;2023-07-24T00:33:54;13.43;;;9.05;;
41689;SDS011;27372;42.658;23.256;2023-07-24T00:36:19;12.90;;;9.18;;
41689;SDS011;27372;42.658;23.256;2023-07-24T00:38:44;15.30;;;9.05;;
41689;SDS011;27372;42.658;23.256;2023-07-24T00:41:19;14.82;;;8.93;;
41689;SDS011;27372;42.658;23.256;2023-07-24T00:43:50;15.00;;;9.55;;
41689;SDS011;27372;42.658;23.256;2023-07-24T00:46:22;15.23;;;9.13;;
41689;SDS011;27372;42.658;23.256;2023-07-24T00:48:51;16.15;;;9.65;;
41689;SDS011;27372;42.658;23.256;2023-07-24T00:51:23;15.38;;;8.85;;
41689;SDS011;27372;42.658;23.256;2023-07-24T00:53:48;14.70;;;9.48;;
41689;SDS011;27372;42.658;23.256;2023-07-24T00:56:16;15.20;;;10.07;;
41689;SDS011;27372;42.658;23.256;2023-07-24T00:58:45;15.73;;;9.25;;
41689;SDS011;27372;42.658;23.256;2023-07-24T01:01:13;14.70;;;10.05;;
41689;SDS011;27372;42.658;23.256;2023-07-24T01:03:41;15.68;;;9.70;;
41689;SDS011;27372;42.658;23.256;2023-07-24T01:06:08;16.98;;;10.02;;
41689;SDS011;27372;42.658;23.256;2023-07-24T01:08:40;15.52;;;9.52;;
41689;SDS011;27372;42.658;23.256;2023-07-24T01:11:09;15.82;;;10.07;;
41689;SDS011;27372;42.658;23.256;2023-07-24T01:13:44;15.20;;;9.20;;
41689;SDS011;27372;42.658;23.256;2023-07-24T01:16:45;14.05;;;9.35;;
41689;SDS011;27372;42.658;23.256;2023-07-24T01:19:33;15.73;;;9.90;;
41689;SDS011;27372;42.658;23.256;2023-07-24T01:27:27;16.10;;;10.27;;
41689;SDS011;27372;42.658;23.256;2023-07-24T01:29:55;17.05;;;10.15;;
41689;SDS011;27372;42.658;23.256;2023-07-24T01:32:24;16.35;;;10.13;;
41689;SDS011;27372;42.658;23.256;2023-07-24T01:37:27;19.50;;;9.77;;
41689;SDS011;27372;42.658;23.256;2023-07-24T01:39:53;19.98;;;11.68;;
41689;SDS011;27372;42.658;23.256;2023-07-24T01:42:21;15.82;;;10.50;;
41689;SDS011;27372;42.658;23.256;2023-07-24T01:44:54;20.48;;;11.07;;
41689;SDS011;27372;42.658;23.256;2023-07-24T01:47:20;16.95;;;10.60;;
41689;SDS011;27372;42.658;23.256;2023-07-24T01:49:46;16.95;;;10.65;;
41689;SDS011;27372;42.658;23.256;2023-07-24T01:52:12;17.80;;;9.88;;
41689;SDS011;27372;42.658;23.256;2023-07-24T01:54:43;16.90;;;10.07;;
41689;SDS011;27372;42.658;23.256;2023-07-24T01:57:09;16.08;;;10.05;;
41689;SDS011;27372;42.658;23.256;2023-07-24T01:59:34;17.15;;;10.68;;
41689;SDS011;27372;42.658;23.256;2023-07-24T02:02:00;15.85;;;9.68;;
41689;SDS011;27372;42.658;23.256;2023-07-24T02:04:29;16.80;;;10.65;;
41689;SDS011;27372;42.658;23.256;2023-07-24T02:06:57;14.43;;;10.00;;
41689;SDS011;27372;42.658;23.256;2023-07-24T02:09:22;17.40;;;9.82;;
41689;SDS011;27372;42.658;23.256;2023-07-24T02:11:50;15.73;;;10.15;;
41689;SDS011;27372;42.658;23.256;2023-07-24T02:14:17;16.88;;;10.13;;
41689;SDS011;27372;42.658;23.256;2023-07-24T02:16:43;14.93;;;10.10;;
41689;SDS011;27372;42.658;23.256;2023-07-24T02:19:08;17.38;;;10.70;;
41689;SDS011;27372;42.658;23.256;2023-07-24T02:21:36;15.15;;;9.95;;
41689;SDS011;27372;42.658;23.256;2023-07-24T02:24:01;15.65;;;10.50;;
41689;SDS011;27372;42.658;23.256;2023-07-24T02:26:27;17.13;;;10.27;;
41689;SDS011;27372;42.658;23.256;2023-07-24T02:28:52;18.95;;;11.20;;
41689;SDS011;27372;42.658;23.256;2023-07-24T02:31:19;17.10;;;10.38;;
41689;SDS011;27372;42.658;23.256;2023-07-24T02:33:44;14.32;;;10.10;;
41689;SDS011;27372;42.658;23.256;2023-07-24T02:36:09;15.88;;;10.45;;
41689;SDS011;27372;42.658;23.256;2023-07-24T02:38:38;15.00;;;10.10;;
41689;SDS011;27372;42.658;23.256;2023-07-24T02:41:09;21.13;;;11.27;;
41689;SDS011;27372;42.658;23.256;2023-07-24T02:43:40;16.98;;;10.85;;
41689;SDS011;27372;42.658;23.256;2023-07-24T02:46:05;17.75;;;10.68;;
41689;SDS011;27372;42.658;23.256;2023-07-24T02:48:33;25.77;;;10.20;;
41689;SDS011;27372;42.658;23.256;2023-07-24T02:50:58;17.50;;;11.02;;
41689;SDS011;27372;42.658;23.256;2023-07-24T02:53:31;15.38;;;10.80;;
41689;SDS011;27372;42.658;23.256;2023-07-24T02:56:03;19.00;;;10.85;;
41689;SDS011;27372;42.658;23.256;2023-07-24T02:58:28;16.75;;;11.27;;
41689;SDS011;27372;42.658;23.256;2023-07-24T03:01:04;19.77;;;11.52;;
41689;SDS011;27372;42.658;23.256;2023-07-24T03:03:43;17.40;;;10.80;;
41689;SDS011;27372;42.658;23.256;2023-07-24T03:06:11;15.40;;;10.02;;
41689;SDS011;27372;42.658;23.256;2023-07-24T03:08:44;17.15;;;11.25;;
41689;SDS011;27372;42.658;23.256;2023-07-24T03:11:16;15.45;;;11.00;;
41689;SDS011;27372;42.658;23.256;2023-07-24T03:13:44;20.48;;;11.98;;
41689;SDS011;27372;42.658;23.256;2023-07-24T03:16:12;17.77;;;11.10;;
41689;SDS011;27372;42.658;23.256;2023-07-24T03:18:38;20.05;;;11.07;;
41689;SDS011;27372;42.658;23.256;2023-07-24T03:21:06;17.00;;;10.77;;
41689;SDS011;27372;42.658;23.256;2023-07-24T03:23:40;17.50;;;11.20;;
41689;SDS011;27372;42.658;23.256;2023-07-24T03:26:06;24.20;;;12.55;;
41689;SDS011;27372;42.658;23.256;2023-07-24T03:28:34;21.10;;;12.35;;
41689;SDS011;27372;42.658;23.256;2023-07-24T03:30:59;17.95;;;11.40;;
41689;SDS011;27372;42.658;23.256;2023-07-24T03:33:27;18.35;;;11.18;;
41689;SDS011;27372;42.658;23.256;2023-07-24T03:35:53;19.52;;;11.13;;
41689;SDS011;27372;42.658;23.256;2023-07-24T03:38:18;17.80;;;11.52;;
41689;SDS011;27372;42.658;23.256;2023-07-24T03:40:47;21.55;;;11.95;;
41689;SDS011;27372;42.658;23.256;2023-07-24T03:43:15;19.88;;;11.95;;
41689;SDS011;27372;42.658;23.256;2023-07-24T03:45:40;19.98;;;12.05;;
41689;SDS011;27372;42.658;23.256;2023-07-24T03:48:07;19.48;;;11.00;;
41689;SDS011;27372;42.658;23.256;2023-07-24T03:50:35;17.95;;;11.23;;
41689;SDS011;27372;42.658;23.256;2023-07-24T03:53:03;18.52;;;11.43;;
41689;SDS011;27372;42.658;23.256;2023-07-24T03:55:28;20.05;;;11.05;;
41689;SDS011;27372;42.658;23.256;2023-07-24T03:57:56;24.40;;;12.35;;
41689;SDS011;27372;42.658;23.256;2023-07-24T04:00:22;20.98;;;11.57;;
41689;SDS011;27372;42.658;23.256;2023-07-24T04:02:47;29.63;;;13.20;;
41689;SDS011;27372;42.658;23.256;2023-07-24T04:05:15;29.48;;;13.85;;
41689;SDS011;27372;42.658;23.256;2023-07-24T04:07:41;21.17;;;12.55;;
41689;SDS011;27372;42.658;23.256;2023-07-24T04:10:06;22.60;;;12.65;;
41689;SDS011;27372;42.658;23.256;2023-07-24T04:12:32;23.50;;;11.65;;
41689;SDS011;27372;42.658;23.256;2023-07-24T04:14:57;17.73;;;11.30;;
41689;SDS011;27372;42.658;23.256;2023-07-24T04:17:23;21.00;;;12.15;;
41689;SDS011;27372;42.658;23.256;2023-07-24T04:19:50;16.15;;;10.50;;
41689;SDS011;27372;42.658;23.256;2023-07-24T04:22:16;15.77;;;10.43;;
41689;SDS011;27372;42.658;23.256;2023-07-24T04:24:44;15.38;;;10.15;;
41689;SDS011;27372;42.658;23.256;2023-07-24T04:27:09;16.42;;;10.50;;
41689;SDS011;27372;42.658;23.256;2023-07-24T04:29:35;16.20;;;10.27;;
41689;SDS011;27372;42.658;23.256;2023-07-24T04:32:03;20.92;;;10.38;;
41689;SDS011;27372;42.658;23.256;2023-07-24T04:34:29;18.02;;;10.88;;
41689;SDS011;27372;42.658;23.256;2023-07-24T04:36:57;20.38;;;11.30;;
41689;SDS011;27372;42.658;23.256;2023-07-24T04:39:28;16.92;;;10.55;;
41689;SDS011;27372;42.658;23.256;2023-07-24T04:41:54;18.52;;;10.90;;
41689;SDS011;27372;42.658;23.256;2023-07-24T04:44:19;18.25;;;10.77;;
41689;SDS011;27372;42.658;23.256;2023-07-24T04:46:45;22.50;;;11.95;;
41689;SDS011;27372;42.658;23.256;2023-07-24T04:49:10;19.85;;;11.30;;
41689;SDS011;27372;42.658;23.256;2023-07-24T04:51:38;21.90;;;11.73;;
41689;SDS011;27372;42.658;23.256;2023-07-24T04:54:04;21.63;;;11.13;;
41689;SDS011;27372;42.658;23.256;2023-07-24T04:56:29;21.42;;;11.80;;
41689;SDS011;27372;42.658;23.256;2023-07-24T04:58:55;23.55;;;11.20;;
41689;SDS011;27372;42.658;23.256;2023-07-24T05:01:20;19.90;;;11.60;;
41689;SDS011;27372;42.658;23.256;2023-07-24T05:03:51;25.23;;;11.70;;
41689;SDS011;27372;42.658;23.256;2023-07-24T05:06:16;26.38;;;12.25;;
41689;SDS011;27372;42.658;23.256;2023-07-24T05:08:42;26.25;;;12.23;;
41689;SDS011;27372;42.658;23.256;2023-07-24T05:11:07;20.83;;;12.38;;
41689;SDS011;27372;42.658;23.256;2023-07-24T05:13:33;24.63;;;11.95;;
41689;SDS011;27372;42.658;23.256;2023-07-24T05:15:58;23.13;;;12.88;;
41689;SDS011;27372;42.658;23.256;2023-07-24T05:18:26;20.98;;;12.80;;
41689;SDS011;27372;42.658;23.256;2023-07-24T05:20:51;28.23;;;12.20;;
41689;SDS011;27372;42.658;23.256;2023-07-24T05:23:17;25.00;;;12.48;;
41689;SDS011;27372;42.658;23.256;2023-07-24T05:25:42;26.52;;;12.48;;
41689;SDS011;27372;42.658;23.256;2023-07-24T05:28:08;27.70;;;12.10;;
41689;SDS011;27372;42.658;23.256;2023-07-24T05:30:34;24.17;;;12.82;;
41689;SDS011;27372;42.658;23.256;2023-07-24T05:33:01;24.13;;;12.90;;
41689;SDS011;27372;42.658;23.256;2023-07-24T05:35:27;19.88;;;12.13;;
41689;SDS011;27372;42.658;23.256;2023-07-24T05:37:52;21.92;;;12.93;;
41689;SDS011;27372;42.658;23.256;2023-07-24T05:40:20;23.70;;;12.73;;
41689;SDS011;27372;42.658;23.256;2023-07-24T05:42:47;30.33;;;12.77;;
41689;SDS011;27372;42.658;23.256;2023-07-24T05:45:13;21.33;;;12.35;;
41689;SDS011;27372;42.658;23.256;2023-07-24T05:47:39;22.85;;;13.07;;
41689;SDS011;27372;42.658;23.256;2023-07-24T05:50:07;20.65;;;12.65;;
41689;SDS011;27372;42.658;23.256;2023-07-24T05:52:33;18.42;;;12.02;;
41689;SDS011;27372;42.658;23.256;2023-07-24T05:54:58;25.58;;;12.55;;
41689;SDS011;27372;42.658;23.256;2023-07-24T05:57:25;20.02;;;12.27;;
41689;SDS011;27372;42.658;23.256;2023-07-24T05:59:54;16.55;;;11.93;;
41689;SDS011;27372;42.658;23.256;2023-07-24T06:04:45;19.60;;;11.43;;
41689;SDS011;27372;42.658;23.256;2023-07-24T06:07:19;18.08;;;11.23;;
41689;SDS011;27372;42.658;23.256;2023-07-24T06:09:45;29.70;;;11.88;;
41689;SDS011;27372;42.658;23.256;2023-07-24T06:12:17;20.23;;;10.88;;
41689;SDS011;27372;42.658;23.256;2023-07-24T06:14:45;21.73;;;12.00;;
41689;SDS011;27372;42.658;23.256;2023-07-24T06:17:10;18.20;;;11.27;;
41689;SDS011;27372;42.658;23.256;2023-07-24T06:19:36;20.08;;;11.77;;
41689;SDS011;27372;42.658;23.256;2023-07-24T06:22:01;26.08;;;11.52;;
41689;SDS011;27372;42.658;23.256;2023-07-24T06:24:29;24.70;;;11.18;;
41689;SDS011;27372;42.658;23.256;2023-07-24T06:26:55;19.30;;;11.30;;
41689;SDS011;27372;42.658;23.256;2023-07-24T06:29:20;18.73;;;11.88;;
41689;SDS011;27372;42.658;23.256;2023-07-24T06:31:47;28.25;;;12.05;;
41689;SDS011;27372;42.658;23.256;2023-07-24T06:34:12;21.23;;;11.70;;
41689;SDS011;27372;42.658;23.256;2023-07-24T06:36:49;17.58;;;12.02;;
41689;SDS011;27372;42.658;23.256;2023-07-24T06:39:15;15.32;;;11.38;;
41689;SDS011;27372;42.658;23.256;2023-07-24T06:41:41;23.73;;;11.82;;
41689;SDS011;27372;42.658;23.256;2023-07-24T06:44:06;17.55;;;11.35;;
41689;SDS011;27372;42.658;23.256;2023-07-24T06:46:32;20.98;;;11.73;;
41689;SDS011;27372;42.658;23.256;2023-07-24T06:48:57;20.40;;;11.75;;
41689;SDS011;27372;42.658;23.256;2023-07-24T06:51:23;19.38;;;12.63;;
41689;SDS011;27372;42.658;23.256;2023-07-24T06:53:51;20.00;;;11.77;;
41689;SDS011;27372;42.658;23.256;2023-07-24T06:56:16;24.52;;;12.10;;
41689;SDS011;27372;42.658;23.256;2023-07-24T06:58:42;20.02;;;11.90;;
41689;SDS011;27372;42.658;23.256;2023-07-24T07:01:10;18.58;;;11.65;;
41689;SDS011;27372;42.658;23.256;2023-07-24T07:03:35;26.80;;;11.90;;
41689;SDS011;27372;42.658;23.256;2023-07-24T07:06:01;24.23;;;11.68;;
41689;SDS011;27372;42.658;23.256;2023-07-24T07:08:27;25.27;;;12.70;;
41689;SDS011;27372;42.658;23.256;2023-07-24T07:11:00;18.45;;;12.23;;
41689;SDS011;27372;42.658;23.256;2023-07-24T07:13:26;24.83;;;12.68;;
41689;SDS011;27372;42.658;23.256;2023-07-24T07:15:52;20.88;;;11.93;;
41689;SDS011;27372;42.658;23.256;2023-07-24T07:18:17;23.77;;;11.75;;
41689;SDS011;27372;42.658;23.256;2023-07-24T07:20:46;22.95;;;11.93;;
41689;SDS011;27372;42.658;23.256;2023-07-24T07:23:13;28.67;;;12.48;;
41689;SDS011;27372;42.658;23.256;2023-07-24T07:25:40;24.95;;;11.40;;
41689;SDS011;27372;42.658;23.256;2023-07-24T07:28:08;22.85;;;13.07;;
41689;SDS011;27372;42.658;23.256;2023-07-24T07:30:33;20.88;;;11.95;;
41689;SDS011;27372;42.658;23.256;2023-07-24T07:33:01;17.50;;;12.03;;
41689;SDS011;27372;42.658;23.256;2023-07-24T07:35:31;18.42;;;12.02;;
41689;SDS011;27372;42.658;23.256;2023-07-24T07:37:59;20.27;;;11.25;;
41689;SDS011;27372;42.658;23.256;2023-07-24T07:40:25;20.60;;;11.95;;
41689;SDS011;27372;42.658;23.256;2023-07-24T07:42:52;18.02;;;11.05;;
41689;SDS011;27372;42.658;23.256;2023-07-24T07:45:18;22.63;;;11.90;;
41689;SDS011;27372;42.658;23.256;2023-07-24T07:47:43;21.77;;;11.85;;
41689;SDS011;27372;42.658;23.256;2023-07-24T07:50:08;25.92;;;11.95;;
41689;SDS011;27372;42.658;23.256;2023-07-24T07:52:34;26.27;;;11.75;;
41689;SDS011;27372;42.658;23.256;2023-07-24T07:54:59;24.40;;;11.90;;
41689;SDS011;27372;42.658;23.256;2023-07-24T07:57:25;20.58;;;11.85;;
41689;SDS011;27372;42.658;23.256;2023-07-24T07:59:50;21.33;;;12.52;;
41689;SDS011;27372;42.658;23.256;2023-07-24T08:02:17;23.23;;;11.70;;
41689;SDS011;27372;42.658;23.256;2023-07-24T08:04:42;21.10;;;11.68;;
41689;SDS011;27372;42.658;23.256;2023-07-24T08:07:07;24.65;;;11.63;;
41689;SDS011;27372;42.658;23.256;2023-07-24T08:09:33;19.05;;;11.10;;
41689;SDS011;27372;42.658;23.256;2023-07-24T08:11:58;18.75;;;11.43;;
41689;SDS011;27372;42.658;23.256;2023-07-24T08:14:26;17.40;;;12.20;;
41689;SDS011;27372;42.658;23.256;2023-07-24T08:16:52;22.92;;;11.68;;
41689;SDS011;27372;42.658;23.256;2023-07-24T08:19:18;19.60;;;11.73;;
41689;SDS011;27372;42.658;23.256;2023-07-24T08:21:43;16.80;;;11.63;;
41689;SDS011;27372;42.658;23.256;2023-07-24T08:24:09;17.00;;;10.63;;
41689;SDS011;27372;42.658;23.256;2023-07-24T08:26:35;21.88;;;11.05;;
41689;SDS011;27372;42.658;23.256;2023-07-24T08:29:00;19.40;;;11.50;;
41689;SDS011;27372;42.658;23.256;2023-07-24T08:31:25;25.13;;;11.10;;
41689;SDS011;27372;42.658;23.256;2023-07-24T08:33:51;18.55;;;10.82;;
41689;SDS011;27372;42.658;23.256;2023-07-24T08:36:16;18.67;;;10.52;;
41689;SDS011;27372;42.658;23.256;2023-07-24T08:38:42;18.88;;;11.68;;
41689;SDS011;27372;42.658;23.256;2023-07-24T08:41:11;19.33;;;10.98;;
41689;SDS011;27372;42.658;23.256;2023-07-24T08:43:38;62.10;;;13.45;;
41689;SDS011;27372;42.658;23.256;2023-07-24T08:46:07;21.10;;;11.57;;
41689;SDS011;27372;42.658;23.256;2023-07-24T08:48:34;19.17;;;11.45;;
41689;SDS011;27372;42.658;23.256;2023-07-24T08:51:04;22.08;;;11.63;;
41689;SDS011;27372;42.658;23.256;2023-07-24T08:53:38;18.42;;;11.13;;
41689;SDS011;27372;42.658;23.256;2023-07-24T08:56:08;17.77;;;11.23;;
41689;SDS011;27372;42.658;23.256;2023-07-24T08:58:35;24.02;;;12.00;;
41689;SDS011;27372;42.658;23.256;2023-07-24T09:01:01;18.80;;;11.02;;
41689;SDS011;27372;42.658;23.256;2023-07-24T09:03:34;30.38;;;11.80;;
41689;SDS011;27372;42.658;23.256;2023-07-24T09:06:00;23.27;;;11.00;;
41689;SDS011;27372;42.658;23.256;2023-07-24T09:08:32;23.33;;;11.05;;
41689;SDS011;27372;42.658;23.256;2023-07-24T09:10:59;18.90;;;11.32;;
41689;SDS011;27372;42.658;23.256;2023-07-24T09:13:25;22.00;;;10.90;;
41689;SDS011;27372;42.658;23.256;2023-07-24T09:15:50;40.15;;;11.50;;
41689;SDS011;27372;42.658;23.256;2023-07-24T09:18:19;23.50;;;11.25;;
41689;SDS011;27372;42.658;23.256;2023-07-24T09:20:45;21.85;;;11.07;;
41689;SDS011;27372;42.658;23.256;2023-07-24T09:23:11;23.08;;;10.60;;
41689;SDS011;27372;42.658;23.256;2023-07-24T09:25:38;16.85;;;10.75;;
41689;SDS011;27372;42.658;23.256;2023-07-24T09:28:15;20.58;;;10.13;;
41689;SDS011;27372;42.658;23.256;2023-07-24T09:30:42;21.88;;;10.93;;
41689;SDS011;27372;42.658;23.256;2023-07-24T09:33:17;19.67;;;10.55;;
41689;SDS011;27372;42.658;23.256;2023-07-24T09:35:43;20.63;;;9.95;;
41689;SDS011;27372;42.658;23.256;2023-07-24T09:38:09;22.88;;;10.50;;
41689;SDS011;27372;42.658;23.256;2023-07-24T09:40:42;20.05;;;10.80;;
41689;SDS011;27372;42.658;23.256;2023-07-24T09:43:24;17.70;;;9.88;;
41689;SDS011;27372;42.658;23.256;2023-07-24T09:45:52;19.48;;;10.80;;
41689;SDS011;27372;42.658;23.256;2023-07-24T09:48:19;20.13;;;10.82;;
41689;SDS011;27372;42.658;23.256;2023-07-24T09:50:47;20.88;;;10.35;;
41689;SDS011;27372;42.658;23.256;2023-07-24T09:53:17;18.13;;;9.85;;
41689;SDS011;27372;42.658;23.256;2023-07-24T09:58:20;21.23;;;8.55;;
41689;SDS011;27372;42.658;23.256;2023-07-24T10:03:16;13.10;;;8.77;;
41689;SDS011;27372;42.658;23.256;2023-07-24T10:05:46;14.88;;;7.93;;
41689;SDS011;27372;42.658;23.256;2023-07-24T10:08:14;13.90;;;8.95;;
41689;SDS011;27372;42.658;23.256;2023-07-24T10:10:41;18.25;;;8.07;;
41689;SDS011;27372;42.658;23.256;2023-07-24T10:13:07;18.90;;;8.23;;
41689;SDS011;27372;42.658;23.256;2023-07-24T10:15:36;15.25;;;8.13;;
41689;SDS011;27372;42.658;23.256;2023-07-24T10:18:05;19.30;;;8.57;;
41689;SDS011;27372;42.658;23.256;2023-07-24T10:20:33;18.33;;;8.18;;
41689;SDS011;27372;42.658;23.256;2023-07-24T10:23:02;20.20;;;8.85;;
41689;SDS011;27372;42.658;23.256;2023-07-24T10:25:29;19.48;;;8.23;;
41689;SDS011;27372;42.658;23.256;2023-07-24T10:28:02;21.80;;;8.30;;
41689;SDS011;27372;42.658;23.256;2023-07-24T10:30:32;24.75;;;8.45;;
41689;SDS011;27372;42.658;23.256;2023-07-24T10:33:07;15.85;;;8.05;;
41689;SDS011;27372;42.658;23.256;2023-07-24T10:38:35;41.13;;;9.20;;
41689;SDS011;27372;42.658;23.256;2023-07-24T10:41:05;15.98;;;7.80;;
41689;SDS011;27372;42.658;23.256;2023-07-24T10:43:47;13.15;;;7.25;;
41689;SDS011;27372;42.658;23.256;2023-07-24T10:46:35;19.67;;;7.28;;
41689;SDS011;27372;42.658;23.256;2023-07-24T10:49:04;12.93;;;6.60;;
41689;SDS011;27372;42.658;23.256;2023-07-24T10:51:41;21.35;;;7.20;;
41689;SDS011;27372;42.658;23.256;2023-07-24T10:54:06;18.52;;;6.63;;
41689;SDS011;27372;42.658;23.256;2023-07-24T10:56:32;13.85;;;6.45;;
41689;SDS011;27372;42.658;23.256;2023-07-24T10:59:09;14.93;;;7.05;;
41689;SDS011;27372;42.658;23.256;2023-07-24T11:01:34;16.35;;;7.13;;
41689;SDS011;27372;42.658;23.256;2023-07-24T11:04:20;18.30;;;6.68;;
41689;SDS011;27372;42.658;23.256;2023-07-24T11:06:45;14.73;;;7.03;;
41689;SDS011;27372;42.658;23.256;2023-07-24T11:12:28;14.65;;;6.68;;
41689;SDS011;27372;42.658;23.256;2023-07-24T11:14:58;15.63;;;7.10;;
41689;SDS011;27372;42.658;23.256;2023-07-24T11:21:15;14.38;;;6.95;;
41689;SDS011;27372;42.658;23.256;2023-07-24T11:27:24;15.88;;;6.82;;
41689;SDS011;27372;42.658;23.256;2023-07-24T11:30:04;14.88;;;7.35;;
41689;SDS011;27372;42.658;23.256;2023-07-24T11:32:42;14.95;;;7.05;;
41689;SDS011;27372;42.658;23.256;2023-07-24T11:35:14;14.98;;;7.47;;
41689;SDS011;27372;42.658;23.256;2023-07-24T11:37:40;19.13;;;7.22;;
41689;SDS011;27372;42.658;23.256;2023-07-24T11:40:06;14.57;;;6.63;;
41689;SDS011;27372;42.658;23.256;2023-07-24T11:42:42;11.85;;;7.55;;
41689;SDS011;27372;42.658;23.256;2023-07-24T11:45:09;18.40;;;7.22;;
41689;SDS011;27372;42.658;23.256;2023-07-24T11:50:41;15.38;;;7.35;;
41689;SDS011;27372;42.658;23.256;2023-07-24T11:53:07;18.80;;;7.28;;
41689;SDS011;27372;42.658;23.256;2023-07-24T11:56:13;12.95;;;6.57;;
41689;SDS011;27372;42.658;23.256;2023-07-24T11:58:46;12.23;;;7.70;;
41689;SDS011;27372;42.658;23.256;2023-07-24T12:01:24;17.23;;;7.47;;
41689;SDS011;27372;42.658;23.256;2023-07-24T12:04:21;18.67;;;7.22;;
41689;SDS011;27372;42.658;23.256;2023-07-24T12:06:59;13.98;;;7.20;;
41689;SDS011;27372;42.658;23.256;2023-07-24T12:09:28;13.00;;;7.53;;
41689;SDS011;27372;42.658;23.256;2023-07-24T12:12:04;11.57;;;7.22;;
41689;SDS011;27372;42.658;23.256;2023-07-24T12:14:41;16.63;;;7.20;;
41689;SDS011;27372;42.658;23.256;2023-07-24T12:17:18;13.10;;;7.53;;
41689;SDS011;27372;42.658;23.256;2023-07-24T12:30:50;11.88;;;7.00;;
41689;SDS011;27372;42.658;23.256;2023-07-24T12:33:50;14.13;;;7.22;;
41689;SDS011;27372;42.658;23.256;2023-07-24T12:36:24;13.40;;;6.88;;
41689;SDS011;27372;42.658;23.256;2023-07-24T12:38:50;13.90;;;7.43;;
41689;SDS011;27372;42.658;23.256;2023-07-24T12:41:30;14.40;;;7.25;;
41689;SDS011;27372;42.658;23.256;2023-07-24T12:43:55;14.43;;;7.47;;
41689;SDS011;27372;42.658;23.256;2023-07-24T12:46:27;12.00;;;7.55;;
41689;SDS011;27372;42.658;23.256;2023-07-24T12:49:13;11.00;;;7.13;;
41689;SDS011;27372;42.658;23.256;2023-07-24T12:51:44;12.55;;;7.50;;
41689;SDS011;27372;42.658;23.256;2023-07-24T12:54:12;10.02;;;6.95;;
41689;SDS011;27372;42.658;23.256;2023-07-24T12:56:56;24.10;;;7.43;;
41689;SDS011;27372;42.658;23.256;2023-07-24T12:59:48;13.93;;;7.15;;
41689;SDS011;27372;42.658;23.256;2023-07-24T13:02:13;13.00;;;6.85;;
41689;SDS011;27372;42.658;23.256;2023-07-24T13:04:39;17.33;;;7.25;;
41689;SDS011;27372;42.658;23.256;2023-07-24T13:07:05;13.75;;;7.43;;
41689;SDS011;27372;42.658;23.256;2023-07-24T13:09:33;19.52;;;7.88;;
41689;SDS011;27372;42.658;23.256;2023-07-24T13:12:18;13.10;;;7.05;;
41689;SDS011;27372;42.658;23.256;2023-07-24T13:14:44;13.23;;;7.18;;
41689;SDS011;27372;42.658;23.256;2023-07-24T13:17:16;11.65;;;6.93;;
41689;SDS011;27372;42.658;23.256;2023-07-24T13:19:42;10.27;;;7.55;;
41689;SDS011;27372;42.658;23.256;2023-07-24T13:22:07;10.15;;;7.30;;
41689;SDS011;27372;42.658;23.256;2023-07-24T13:24:37;12.02;;;7.82;;
41689;SDS011;27372;42.658;23.256;2023-07-24T13:27:02;13.48;;;7.88;;
41689;SDS011;27372;42.658;23.256;2023-07-24T13:29:31;11.45;;;7.32;;
41689;SDS011;27372;42.658;23.256;2023-07-24T13:32:03;11.75;;;7.70;;
41689;SDS011;27372;42.658;23.256;2023-07-24T13:34:29;13.80;;;7.38;;
41689;SDS011;27372;42.658;23.256;2023-07-24T13:36:54;10.45;;;7.47;;
41689;SDS011;27372;42.658;23.256;2023-07-24T13:39:23;13.65;;;7.28;;
41689;SDS011;27372;42.658;23.256;2023-07-24T13:41:56;10.68;;;7.90;;
41689;SDS011;27372;42.658;23.256;2023-07-24T13:44:30;11.80;;;7.45;;
41689;SDS011;27372;42.658;23.256;2023-07-24T13:46:56;11.40;;;7.88;;
41689;SDS011;27372;42.658;23.256;2023-07-24T13:49:24;11.38;;;7.47;;
41689;SDS011;27372;42.658;23.256;2023-07-24T13:51:53;11.32;;;7.15;;
41689;SDS011;27372;42.658;23.256;2023-07-24T13:56:46;10.63;;;7.40;;
41689;SDS011;27372;42.658;23.256;2023-07-24T13:59:14;16.85;;;7.78;;
41689;SDS011;27372;42.658;23.256;2023-07-24T14:01:39;12.35;;;7.82;;
41689;SDS011;27372;42.658;23.256;2023-07-24T14:04:05;12.60;;;8.23;;
41689;SDS011;27372;42.658;23.256;2023-07-24T14:06:33;14.02;;;8.05;;
41689;SDS011;27372;42.658;23.256;2023-07-24T14:09:57;16.20;;;7.82;;
41689;SDS011;27372;42.658;23.256;2023-07-24T14:12:30;25.77;;;11.70;;
41689;SDS011;27372;42.658;23.256;2023-07-24T14:14:59;10.95;;;8.18;;
41689;SDS011;27372;42.658;23.256;2023-07-24T14:20:02;22.02;;;9.15;;
41689;SDS011;27372;42.658;23.256;2023-07-24T14:22:28;10.77;;;7.82;;
41689;SDS011;27372;42.658;23.256;2023-07-24T14:24:54;13.15;;;8.27;;
41689;SDS011;27372;42.658;23.256;2023-07-24T14:27:19;12.65;;;7.93;;
41689;SDS011;27372;42.658;23.256;2023-07-24T14:29:50;12.93;;;7.63;;
41689;SDS011;27372;42.658;23.256;2023-07-24T14:32:18;15.25;;;7.93;;
41689;SDS011;27372;42.658;23.256;2023-07-24T14:34:45;18.77;;;8.07;;
41689;SDS011;27372;42.658;23.256;2023-07-24T14:37:17;13.50;;;8.23;;
41689;SDS011;27372;42.658;23.256;2023-07-24T14:39:43;12.40;;;8.00;;
41689;SDS011;27372;42.658;23.256;2023-07-24T14:42:12;13.10;;;8.10;;
41689;SDS011;27372;42.658;23.256;2023-07-24T14:44:38;11.50;;;8.52;;
41689;SDS011;27372;42.658;23.256;2023-07-24T14:47:04;13.02;;;8.48;;
41689;SDS011;27372;42.658;23.256;2023-07-24T14:49:29;16.83;;;8.43;;
41689;SDS011;27372;42.658;23.256;2023-07-24T14:51:55;13.60;;;8.43;;
41689;SDS011;27372;42.658;23.256;2023-07-24T14:54:28;12.77;;;7.90;;
41689;SDS011;27372;42.658;23.256;2023-07-24T14:56:57;14.45;;;7.72;;
41689;SDS011;27372;42.658;23.256;2023-07-24T14:59:23;12.95;;;8.10;;
41689;SDS011;27372;42.658;23.256;2023-07-24T15:01:48;13.87;;;7.83;;
41689;SDS011;27372;42.658;23.256;2023-07-24T15:04:14;11.70;;;7.82;;
41689;SDS011;27372;42.658;23.256;2023-07-24T15:06:39;12.57;;;8.20;;
41689;SDS011;27372;42.658;23.256;2023-07-24T15:09:04;10.40;;;8.57;;
41689;SDS011;27372;42.658;23.256;2023-07-24T15:11:30;12.27;;;8.25;;